Time;durP1;ratioP1;P1;durP2;ratioP2;P2;SDS_P1;SDS_P2;PMS_P1;PMS_P2;Temp;Humidity;BMP_temperature;BMP_pressure;BME280_temperature;BME280_humidity;BME280_pressure;Samples;Min_cycle;Max_cycle;Signal;HPM_P1;HPM_P2
2022/12/13 00:01:16;;;;;;;0.40;0.40;;;;;;;-7.25;100.00;101197.44;4952026;28;20031;-73
2022/12/13 00:03:42;;;;;;;0.40;0.40;;;;;;;-7.13;100.00;101211.38;4930050;28;20027;-74
2022/12/13 00:06:09;;;;;;;0.30;0.30;;;;;;;-7.00;100.00;101215.72;4935227;28;20030;-73
2022/12/13 00:08:34;;;;;;;0.30;0.30;;;;;;;-7.00;100.00;101220.09;4924624;29;20070;-73
2022/12/13 00:11:00;;;;;;;0.40;0.40;;;;;;;-7.05;100.00;101214.88;4930897;28;20034;-73
2022/12/13 00:13:27;;;;;;;0.40;0.40;;;;;;;-6.96;100.00;101221.84;4948236;28;20031;-73
2022/12/13 00:15:56;;;;;;;0.32;0.32;;;;;;;-7.10;100.00;101193.97;4933516;28;20035;-73
2022/12/13 00:18:22;;;;;;;0.40;0.40;;;;;;;-7.15;100.00;101180.03;4928726;28;20023;-73
2022/12/13 00:20:47;;;;;;;0.40;0.40;;;;;;;-7.10;100.00;101182.69;4931972;29;20051;-73
2022/12/13 00:23:12;;;;;;;0.40;0.40;;;;;;;-6.88;100.00;101217.47;4949716;28;20429;-73
2022/12/13 00:25:38;;;;;;;0.40;0.40;;;;;;;-6.95;100.00;101203.56;4940840;28;20474;-73
2022/12/13 00:28:03;;;;;;;0.30;0.30;;;;;;;-6.98;100.00;101194.88;4924729;28;20035;-73
2022/12/13 00:30:31;;;;;;;0.40;0.40;;;;;;;-6.86;100.00;101212.28;4928074;29;20042;-73
2022/12/13 00:32:56;;;;;;;0.40;0.40;;;;;;;-6.89;100.00;101209.66;4911473;29;20619;-73
2022/12/13 00:35:22;;;;;;;0.40;0.40;;;;;;;-6.91;100.00;101203.56;4930664;28;20027;-73
2022/12/13 00:37:47;;;;;;;0.40;0.40;;;;;;;-6.99;100.00;101185.28;4926765;29;20106;-73
2022/12/13 00:40:13;;;;;;;0.30;0.30;;;;;;;-7.14;100.00;101176.56;4936669;28;20394;-73
2022/12/13 00:42:38;;;;;;;0.30;0.30;;;;;;;-6.96;100.00;101204.44;4913348;29;20028;-73
2022/12/13 00:45:03;;;;;;;0.40;0.40;;;;;;;-6.99;100.00;101214.88;4918812;28;20414;-74
2022/12/13 00:47:29;;;;;;;0.40;0.40;;;;;;;-7.17;100.00;101176.59;4942858;28;20364;-73
2022/12/13 00:49:54;;;;;;;0.38;0.38;;;;;;;-7.00;100.00;101215.72;4932970;28;20512;-74
2022/12/13 00:52:19;;;;;;;0.40;0.40;;;;;;;-7.08;100.00;101202.69;4920035;28;20469;-73
2022/12/13 00:54:44;;;;;;;0.32;0.32;;;;;;;-7.02;100.00;101212.28;4917403;28;20031;-73
2022/12/13 00:57:10;;;;;;;0.32;0.32;;;;;;;-7.16;100.00;101180.94;4916710;28;20038;-73
2022/12/13 00:59:35;;;;;;;0.35;0.35;;;;;;;-7.23;100.00;101187.00;4927748;29;20094;-73
2022/12/13 01:02:01;;;;;;;0.40;0.40;;;;;;;-7.20;100.00;101200.06;4921655;28;20385;-73
2022/12/13 01:04:26;;;;;;;0.30;0.30;;;;;;;-7.35;100.00;101173.94;4930627;29;20046;-73
2022/12/13 01:06:52;;;;;;;0.30;0.30;;;;;;;-7.27;100.00;101182.66;4913540;28;20069;-73
2022/12/13 01:09:21;;;;;;;0.30;0.30;;;;;;;-7.12;100.00;101202.69;4927407;28;20031;-73
2022/12/13 01:11:47;;;;;;;0.40;0.40;;;;;;;-7.23;100.00;101180.03;4927747;29;20556;-73
2022/12/13 01:14:13;;;;;;;0.40;0.40;;;;;;;-7.09;100.00;101205.31;4928049;29;20098;-73
2022/12/13 01:16:38;;;;;;;0.40;0.40;;;;;;;-7.20;100.00;101181.81;4915587;28;20462;-73
2022/12/13 01:19:04;;;;;;;0.40;0.40;;;;;;;-7.26;100.00;101174.81;4924025;29;20035;-73
2022/12/13 01:21:29;;;;;;;0.32;0.32;;;;;;;-7.11;100.00;101209.66;4926251;29;20401;-73
2022/12/13 01:24:00;;;;;;;0.40;0.40;;;;;;;-7.34;100.00;101173.94;4925957;29;20038;-73
2022/12/13 01:26:26;;;;;;;0.40;0.40;;;;;;;-7.34;100.00;101187.00;4927830;28;20502;-73
2022/12/13 01:28:51;;;;;;;0.40;0.40;;;;;;;-7.18;100.00;101205.28;4924900;29;20039;-73
2022/12/13 01:31:19;;;;;;;0.30;0.30;;;;;;;-7.28;100.00;101191.34;4924617;28;20050;-73
2022/12/13 01:33:44;;;;;;;0.30;0.30;;;;;;;-7.27;100.00;101190.47;4916306;29;20047;-73
2022/12/13 01:36:14;;;;;;;0.32;0.32;;;;;;;-7.10;100.00;101209.63;4920404;28;20038;-73
2022/12/13 01:38:39;;;;;;;0.40;0.40;;;;;;;-7.15;100.00;101197.47;4934748;28;20378;-73
2022/12/13 01:41:05;;;;;;;0.40;0.40;;;;;;;-7.25;100.00;101183.53;4929226;29;20042;-73
2022/12/13 01:43:30;;;;;;;0.40;0.40;;;;;;;-7.14;100.00;101207.88;4926660;29;20087;-73
2022/12/13 01:45:55;;;;;;;0.40;0.40;;;;;;;-7.14;100.00;101209.63;4938598;28;20043;-73
2022/12/13 01:48:25;;;;;;;0.30;0.30;;;;;;;-7.30;100.00;101193.09;4924893;29;20065;-73
2022/12/13 01:50:55;;;;;;;0.40;0.40;;;;;;;-7.46;100.00;101181.75;4941468;28;20027;-73
2022/12/13 01:53:22;;;;;;;0.40;0.40;;;;;;;-7.51;100.00;101176.53;4921416;29;20031;-73
2022/12/13 01:55:49;;;;;;;0.40;0.40;;;;;;;-7.47;100.00;101185.22;4929332;29;20423;-73
2022/12/13 01:58:15;;;;;;;0.40;0.40;;;;;;;-7.31;100.00;101200.06;4926342;29;20031;-73
2022/12/13 02:00:41;;;;;;;0.40;0.40;;;;;;;-7.27;100.00;101203.53;4910613;28;20398;-73
2022/12/13 02:03:06;;;;;;;0.30;0.30;;;;;;;-7.30;100.00;101198.31;4936030;28;20114;-73
2022/12/13 02:05:39;;;;;;;0.30;0.30;;;;;;;-7.41;100.00;101203.50;4937873;28;20035;-73
2022/12/13 02:08:06;;;;;;;0.40;0.40;;;;;;;-7.51;100.00;101201.72;4923904;29;20047;-73
2022/12/13 02:10:32;;;;;;;0.32;0.32;;;;;;;-7.72;100.00;101175.59;4936677;28;20197;-73
2022/12/13 02:12:57;;;;;;;0.40;0.40;;;;;;;-7.57;100.00;101197.38;4926718;29;20042;-73
2022/12/13 02:15:23;;;;;;;0.40;0.40;;;;;;;-7.63;100.00;101208.66;4941265;28;20125;-73
2022/12/13 02:18:29;;;;;;;0.30;0.30;;;;;;;-7.78;100.00;101191.22;4935112;28;20042;-73
2022/12/13 02:21:06;;;;;;;0.38;0.38;;;;;;;-7.61;100.00;101208.66;4942285;28;20042;-73
2022/12/13 02:23:53;;;;;;;0.90;0.40;;;;;;;-7.60;100.00;101210.41;4938077;28;20564;-73
2022/12/13 02:26:39;;;;;;;0.40;0.40;;;;;;;-7.54;100.00;101206.06;4929121;28;20039;-73
2022/12/13 02:29:33;;;;;;;0.40;0.40;;;;;;;-7.48;100.00;101199.13;4937796;28;20466;-73
2022/12/13 02:32:27;;;;;;;0.40;0.40;;;;;;;-7.47;100.00;101196.53;4937011;28;20066;-73
2022/12/13 02:34:59;;;;;;;0.40;0.40;;;;;;;-7.61;100.00;101186.06;4955898;28;20041;-73
2022/12/13 02:37:58;;;;;;;0.30;0.30;;;;;;;-7.52;100.00;101203.47;4939393;28;20031;-73
2022/12/13 02:40:51;;;;;;;0.40;0.40;;;;;;;-7.76;100.00;101170.34;4929596;28;20038;-73
2022/12/13 02:43:26;;;;;;;0.40;0.40;;;;;;;-7.74;100.00;101172.13;4921761;28;20117;-73
2022/12/13 02:45:54;;;;;;;0.40;0.40;;;;;;;-7.62;100.00;101186.94;4928626;29;20031;-73
2022/12/13 02:48:25;;;;;;;0.40;0.40;;;;;;;-7.75;100.00;101165.16;4923220;28;20031;-73
2022/12/13 02:50:51;;;;;;;0.40;0.40;;;;;;;-7.70;100.00;101154.75;4950322;28;20024;-73
2022/12/13 02:53:18;;;;;;;0.40;0.40;;;;;;;-7.55;100.00;101180.84;4922383;28;20502;-73
2022/12/13 02:55:44;;;;;;;0.40;0.40;;;;;;;-7.48;100.00;101180.88;4946972;28;20035;-73
2022/12/13 02:58:14;;;;;;;0.40;0.40;;;;;;;-7.51;100.00;101170.41;4938450;28;20039;-74
2022/12/13 03:00:48;;;;;;;0.40;0.40;;;;;;;-7.43;100.00;101174.81;4951104;28;20390;-73
2022/12/13 03:03:33;;;;;;;0.40;0.40;;;;;;;-7.57;100.00;101146.09;4939561;28;20071;-73
2022/12/13 03:08:51;;;;;;;0.40;0.40;;;;;;;-7.40;100.00;101176.53;4944980;28;20005;-73
2022/12/13 03:11:18;;;;;;;0.40;0.40;;;;;;;-7.49;100.00;101176.50;4947652;28;20460;-73
2022/12/13 03:13:55;;;;;;;0.40;0.40;;;;;;;-7.71;100.00;101166.91;4933773;28;20038;-73
2022/12/13 03:16:39;;;;;;;0.40;0.40;;;;;;;-7.61;100.00;101169.53;4920180;28;20027;-73
2022/12/13 03:19:09;;;;;;;0.40;0.40;;;;;;;-7.54;100.00;101164.34;4921964;28;20478;-73
2022/12/13 03:21:43;;;;;;;0.40;0.40;;;;;;;-7.63;100.00;101147.78;4932949;28;20043;-74
2022/12/13 03:24:08;;;;;;;0.40;0.40;;;;;;;-7.56;100.00;101144.34;4920120;28;21018;-73
2022/12/13 03:26:35;;;;;;;0.40;0.40;;;;;;;-7.47;100.00;101165.25;4934393;28;20036;-74
2022/12/13 03:29:00;;;;;;;0.40;0.40;;;;;;;-7.66;100.00;101140.84;4906155;28;20734;-73
2022/12/13 03:31:26;;;;;;;0.40;0.40;;;;;;;-7.57;100.00;101171.28;4937011;28;20031;-74
2022/12/13 03:33:51;;;;;;;0.40;0.40;;;;;;;-7.73;100.00;101147.78;4933554;28;20444;-73
2022/12/13 03:36:17;;;;;;;0.40;0.40;;;;;;;-7.57;100.00;101174.78;4921826;28;20123;-74
2022/12/13 03:38:43;;;;;;;0.40;0.40;;;;;;;-7.76;100.00;101145.16;4921405;29;20401;-74
2022/12/13 03:41:12;;;;;;;0.40;0.40;;;;;;;-7.66;100.00;101155.59;4906545;28;20417;-74
2022/12/13 03:43:38;;;;;;;0.40;0.40;;;;;;;-7.55;100.00;101178.22;4918901;28;20027;-73
2022/12/13 03:46:04;;;;;;;0.40;0.40;;;;;;;-7.60;100.00;101163.44;4944465;28;20049;-74
2022/12/13 03:48:29;;;;;;;0.40;0.40;;;;;;;-7.48;100.00;101175.66;4942386;28;20508;-73
2022/12/13 03:50:55;;;;;;;0.40;0.40;;;;;;;-7.51;100.00;101162.59;4939856;28;20509;-74
2022/12/13 03:53:21;;;;;;;0.40;0.40;;;;;;;-7.51;100.00;101167.81;4925859;28;20055;-74
2022/12/13 03:55:47;;;;;;;0.40;0.40;;;;;;;-7.58;100.00;101166.94;4941991;28;20031;-74
2022/12/13 03:58:12;;;;;;;0.40;0.40;;;;;;;-7.57;100.00;101173.91;4929370;28;20541;-74
2022/12/13 04:00:37;;;;;;;0.40;0.40;;;;;;;-7.73;100.00;101146.91;4946571;28;20042;-74
2022/12/13 04:03:03;;;;;;;0.30;0.30;;;;;;;-7.53;100.00;101173.91;4941153;28;20058;-74
2022/12/13 04:05:29;;;;;;;0.40;0.40;;;;;;;-7.53;100.00;101170.44;4944393;28;20055;-74
2022/12/13 04:07:54;;;;;;;0.40;0.40;;;;;;;-7.64;100.00;101152.16;4943725;28;20027;-73
2022/12/13 04:10:21;;;;;;;0.40;0.40;;;;;;;-7.58;100.00;101153.91;4931592;29;20375;-74
2022/12/13 04:15:30;;;;;;;0.40;0.40;;;;;;;-7.38;100.00;101173.06;4931181;28;20038;-74
2022/12/13 04:17:55;;;;;;;0.40;0.40;;;;;;;-7.46;100.00;101156.53;4947283;28;20043;-74
2022/12/13 04:20:22;;;;;;;0.30;0.30;;;;;;;-7.35;100.00;101166.09;4944270;28;20222;-73
2022/12/13 04:22:47;;;;;;;0.40;0.40;;;;;;;-7.27;100.00;101169.59;4931911;29;20050;-74
2022/12/13 04:25:12;;;;;;;0.30;0.30;;;;;;;-7.31;100.00;101142.66;4951438;28;20058;-74
2022/12/13 04:27:38;;;;;;;0.40;0.40;;;;;;;-7.36;100.00;101161.75;4932374;29;20042;-74
2022/12/13 04:30:04;;;;;;;0.40;0.40;;;;;;;-7.27;100.00;101160.03;4937838;29;20138;-74
2022/12/13 04:32:30;;;;;;;0.30;0.30;;;;;;;-7.29;100.00;101158.28;4942303;28;20080;-74
2022/12/13 04:34:55;;;;;;;0.40;0.40;;;;;;;-7.24;100.00;101152.19;4940732;28;20031;-74
2022/12/13 04:37:20;;;;;;;0.30;0.30;;;;;;;-7.23;100.00;101160.91;4945489;28;20034;-74
2022/12/13 04:39:46;;;;;;;0.40;0.40;;;;;;;-7.46;100.00;101122.63;4934238;28;20034;-74
2022/12/13 04:42:11;;;;;;;0.40;0.40;;;;;;;-7.32;100.00;101151.34;4945200;28;20039;-74
2022/12/13 04:44:36;;;;;;;0.40;0.40;;;;;;;-7.31;100.00;101154.81;4943237;28;20063;-74
2022/12/13 04:47:02;;;;;;;0.40;0.40;;;;;;;-7.33;100.00;101166.97;4943707;28;20046;-74
2022/12/13 04:49:31;;;;;;;0.40;0.40;;;;;;;-7.39;100.00;101155.66;4946830;28;20038;-74
2022/12/13 04:51:56;;;;;;;0.40;0.40;;;;;;;-7.36;100.00;101159.16;4945383;28;20035;-75
2022/12/13 04:54:22;;;;;;;0.40;0.40;;;;;;;-7.59;100.00;101119.13;4947593;28;20398;-74
2022/12/13 04:56:47;;;;;;;0.40;0.40;;;;;;;-7.56;100.00;101133.91;4952053;28;20503;-74
2022/12/13 04:59:13;;;;;;;0.40;0.40;;;;;;;-7.60;100.00;101138.25;4944445;28;20035;-75
2022/12/13 05:01:38;;;;;;;0.40;0.40;;;;;;;-7.74;100.00;101140.84;4949577;28;20055;-74
2022/12/13 05:04:03;;;;;;;0.40;0.40;;;;;;;-7.63;100.00;101160.84;4940900;28;20063;-74
2022/12/13 05:06:29;;;;;;;0.40;0.40;;;;;;;-7.82;100.00;101128.66;4930313;28;20106;-74
2022/12/13 05:08:54;;;;;;;0.40;0.40;;;;;;;-7.91;100.00;101121.66;4930177;29;20042;-74
2022/12/13 05:11:20;;;;;;;0.35;0.35;;;;;;;-7.67;100.00;101162.56;4945128;28;20031;-74
2022/12/13 05:13:45;;;;;;;0.40;0.40;;;;;;;-7.86;100.00;101125.16;4930494;29;20034;-74
2022/12/13 05:16:11;;;;;;;0.40;0.40;;;;;;;-7.79;100.00;101154.69;4914464;28;20734;-74
2022/12/13 05:18:36;;;;;;;0.40;0.40;;;;;;;-8.02;100.00;101143.34;4930658;29;20027;-74
2022/12/13 05:21:04;;;;;;;0.40;0.40;;;;;;;-7.93;100.00;101155.53;4951021;28;20410;-74
2022/12/13 05:23:29;;;;;;;0.40;0.40;;;;;;;-8.01;100.00;101119.03;4936759;28;20138;-74
2022/12/13 05:25:54;;;;;;;0.40;0.40;;;;;;;-8.00;100.00;101123.38;4930943;28;20062;-74
2022/12/13 05:28:20;;;;;;;0.40;0.40;;;;;;;-7.92;100.00;101125.13;4928939;29;20039;-74
2022/12/13 05:30:45;;;;;;;0.40;0.40;;;;;;;-7.90;100.00;101112.97;4921836;29;20058;-74
2022/12/13 05:33:11;;;;;;;0.30;0.30;;;;;;;-7.85;100.00;101129.50;4933707;28;20513;-74
2022/12/13 05:35:36;;;;;;;0.30;0.30;;;;;;;-7.72;100.00;101135.59;4916049;29;20039;-74
2022/12/13 05:38:02;;;;;;;0.30;0.30;;;;;;;-7.70;100.00;101139.97;4925647;29;20395;-74
2022/12/13 05:40:30;;;;;;;0.40;0.40;;;;;;;-7.93;100.00;101098.19;4929336;29;20034;-74
2022/12/13 05:42:56;;;;;;;0.30;0.30;;;;;;;-7.71;100.00;101133.03;4908505;29;20046;-74
2022/12/13 05:45:21;;;;;;;0.40;0.40;;;;;;;-7.72;100.00;101131.28;4925393;28;20027;-74
2022/12/13 05:47:47;;;;;;;0.40;0.40;;;;;;;-7.73;100.00;101132.16;4914616;29;20849;-74
2022/12/13 05:50:14;;;;;;;0.40;0.40;;;;;;;-7.73;100.00;101120.84;4930944;29;20043;-74
2022/12/13 05:52:39;;;;;;;0.40;0.40;;;;;;;-7.80;100.00;101113.84;4914265;28;20035;-74
2022/12/13 05:55:05;;;;;;;0.40;0.40;;;;;;;-7.81;100.00;101113.00;4920394;28;20097;-74
2022/12/13 05:57:30;;;;;;;0.40;0.40;;;;;;;-7.72;100.00;101117.34;4936543;28;20046;-74
2022/12/13 05:59:56;;;;;;;0.38;0.38;;;;;;;-7.78;100.00;101099.09;4913198;28;20035;-74
2022/12/13 06:02:21;;;;;;;0.40;0.40;;;;;;;-7.69;100.00;101114.75;4927138;28;20377;-74
2022/12/13 06:04:47;;;;;;;0.40;0.40;;;;;;;-7.65;100.00;101120.84;4927490;28;20039;-74
2022/12/13 06:07:12;;;;;;;0.40;0.40;;;;;;;-7.74;100.00;101106.06;4930929;28;20061;-74
2022/12/13 06:09:37;;;;;;;0.40;0.40;;;;;;;-7.78;100.00;101094.75;4932115;28;20042;-74
2022/12/13 06:12:03;;;;;;;0.40;0.40;;;;;;;-7.77;100.00;101095.63;4925037;29;20035;-74
2022/12/13 06:14:28;;;;;;;0.40;0.40;;;;;;;-7.82;100.00;101098.22;4937448;28;20039;-74
2022/12/13 06:16:54;;;;;;;0.40;0.40;;;;;;;-7.75;100.00;101115.63;4929897;28;20755;-74
2022/12/13 06:19:20;;;;;;;0.40;0.40;;;;;;;-7.86;100.00;101109.50;4935515;29;20039;-74
2022/12/13 06:21:46;;;;;;;0.35;0.35;;;;;;;-7.86;100.00;101104.28;4916650;28;20384;-74
2022/12/13 06:24:13;;;;;;;0.40;0.40;;;;;;;-7.78;100.00;101117.34;4910390;29;20034;-74
2022/12/13 06:26:38;;;;;;;0.30;0.30;;;;;;;-7.78;100.00;101122.56;4942675;28;20031;-74
2022/12/13 06:29:03;;;;;;;0.40;0.40;;;;;;;-7.86;100.00;101096.47;4926645;29;20518;-74
2022/12/13 06:31:28;;;;;;;0.40;0.40;;;;;;;-7.89;100.00;101097.34;4933873;28;20117;-74
2022/12/13 06:33:54;;;;;;;0.40;0.40;;;;;;;-7.83;100.00;101112.13;4930069;29;20533;-74
2022/12/13 06:36:19;;;;;;;0.40;0.40;;;;;;;-7.88;100.00;101117.34;4939804;28;20023;-73
2022/12/13 06:38:44;;;;;;;0.40;0.40;;;;;;;-8.01;100.00;101086.88;4926071;28;20130;-74
2022/12/13 06:41:15;;;;;;;0.40;0.40;;;;;;;-8.15;100.00;101084.22;4927595;28;20114;-73
2022/12/13 06:43:42;;;;;;;0.40;0.40;;;;;;;-8.13;100.00;101088.59;4912823;28;20038;-73
2022/12/13 06:46:08;;;;;;;0.32;0.32;;;;;;;-7.95;100.00;101115.56;4923720;28;20034;-73
2022/12/13 06:48:33;;;;;;;0.40;0.40;;;;;;;-8.23;100.00;101073.78;4916397;29;20325;-73
2022/12/13 06:51:00;;;;;;;0.40;0.40;;;;;;;-8.05;100.00;101103.34;4921673;28;20040;-73
2022/12/13 06:53:26;;;;;;;0.40;0.40;;;;;;;-8.03;100.00;101097.31;4924571;29;20054;-73
2022/12/13 06:55:51;;;;;;;0.40;0.40;;;;;;;-7.90;100.00;101113.84;4924711;28;20174;-73
2022/12/13 06:58:17;;;;;;;0.40;0.40;;;;;;;-7.85;100.00;101116.47;4913668;28;20031;-73
2022/12/13 07:00:43;;;;;;;0.40;0.40;;;;;;;-7.84;100.00;101129.50;4928307;29;20151;-73
2022/12/13 07:03:10;;;;;;;0.40;0.40;;;;;;;-7.85;100.00;101116.47;4911498;28;20035;-73
2022/12/13 07:05:37;;;;;;;0.40;0.40;;;;;;;-7.88;100.00;101103.41;4931217;28;20058;-73
2022/12/13 07:08:02;;;;;;;0.40;0.40;;;;;;;-7.79;100.00;101119.09;4909237;28;20510;-73
2022/12/13 07:10:28;;;;;;;0.38;0.38;;;;;;;-7.71;100.00;101121.72;4934586;29;20494;-73
2022/12/13 07:12:53;;;;;;;0.40;0.40;;;;;;;-7.92;100.00;101086.03;4914175;28;20035;-73
2022/12/13 07:15:18;;;;;;;0.40;0.40;;;;;;;-7.75;100.00;101125.16;4936686;28;20043;-73
2022/12/13 07:17:48;;;;;;;0.40;0.40;;;;;;;-7.75;100.00;101128.66;4943419;28;20094;-73
2022/12/13 07:20:14;;;;;;;0.40;0.40;;;;;;;-7.72;100.00;101126.06;4905171;29;20042;-73
2022/12/13 07:22:40;;;;;;;0.32;0.32;;;;;;;-7.77;100.00;101137.31;4924956;28;20078;-72
2022/12/13 07:25:06;;;;;;;0.40;0.40;;;;;;;-7.77;100.00;101139.94;4935413;28;20037;-73
2022/12/13 07:27:31;;;;;;;0.40;0.40;;;;;;;-7.89;100.00;101119.91;4931955;28;20039;-72
2022/12/13 07:29:57;;;;;;;0.40;0.40;;;;;;;-7.90;100.00;101131.22;4942062;28;20104;-73
2022/12/13 07:32:22;;;;;;;0.40;0.40;;;;;;;-8.04;100.00;101113.81;4932011;28;20035;-73
2022/12/13 07:34:47;;;;;;;0.40;0.40;;;;;;;-7.90;100.00;101134.69;4932530;28;20142;-72
2022/12/13 07:37:13;;;;;;;0.40;0.40;;;;;;;-7.97;100.00;101127.72;4944239;28;20036;-73
2022/12/13 07:39:38;;;;;;;0.40;0.40;;;;;;;-7.94;100.00;101121.66;4926010;29;20464;-73
2022/12/13 07:42:03;;;;;;;0.40;0.40;;;;;;;-7.87;100.00;101115.59;4937260;28;20090;-73
2022/12/13 07:44:29;;;;;;;0.40;0.40;;;;;;;-7.66;100.00;101148.66;4924299;29;20042;-73
2022/12/13 07:46:54;;;;;;;0.40;0.40;;;;;;;-7.74;100.00;101137.34;4942595;28;20074;-73
2022/12/13 07:49:20;;;;;;;0.40;0.40;;;;;;;-7.79;100.00;101124.31;4934477;29;20478;-73
2022/12/13 07:51:45;;;;;;;0.30;0.30;;;;;;;-7.86;100.00;101125.16;4931195;29;20030;-73
2022/12/13 07:54:10;;;;;;;0.40;0.40;;;;;;;-7.75;100.00;101138.22;4937845;28;20421;-73
2022/12/13 07:56:37;;;;;;;0.35;0.35;;;;;;;-7.73;100.00;101131.25;4939362;28;20077;-72
2022/12/13 07:59:02;;;;;;;0.40;0.40;;;;;;;-7.73;100.00;101126.94;4932979;28;20111;-73
2022/12/13 08:01:31;;;;;;;0.40;0.40;;;;;;;-7.47;100.00;101148.69;4928731;29;20051;-73
2022/12/13 08:03:56;;;;;;;0.40;0.40;;;;;;;-7.36;100.00;101157.44;4940050;28;20090;-74
2022/12/13 08:06:21;;;;;;;0.30;0.30;;;;;;;-7.29;100.00;101150.47;4924223;29;20035;-73
2022/12/13 08:08:49;;;;;;;0.40;0.40;;;;;;;-7.15;100.00;101127.84;4923746;29;20555;-72
2022/12/13 08:11:16;;;;;;;0.40;0.40;;;;;;;-7.05;100.00;101138.28;4939606;29;20407;-72
2022/12/13 08:13:41;;;;;;;0.40;0.40;;;;;;;-6.97;100.00;101142.63;4940749;28;20036;-72
2022/12/13 08:16:09;;;;;;;0.40;0.40;;;;;;;-6.64;100.00;101158.28;4943251;28;20044;-72
2022/12/13 08:18:34;;;;;;;0.40;0.40;;;;;;;-6.52;100.00;101145.19;4940780;28;20027;-72
2022/12/13 08:21:04;;;;;;;0.40;0.40;;;;;;;-6.41;100.00;101128.63;4942845;28;20039;-72
2022/12/13 08:23:32;;;;;;;0.40;0.40;;;;;;;-6.11;100.00;101145.94;4911776;29;20178;-72
2022/12/13 08:25:57;;;;;;;0.40;0.40;;;;;;;-5.85;100.00;101141.47;4927871;29;20039;-72
2022/12/13 08:28:23;;;;;;;0.40;0.40;;;;;;;-5.56;100.00;101133.44;4923347;29;20035;-72
2022/12/13 08:30:48;;;;;;;0.45;0.45;;;;;;;-5.31;100.00;101133.25;4923970;29;20438;-72
2022/12/13 08:33:14;;;;;;;0.30;0.30;;;;;;;-5.21;100.00;101132.31;4911120;28;20409;-72
2022/12/13 08:35:39;;;;;;;0.30;0.30;;;;;;;-5.03;100.00;101135.66;4952867;28;20050;-72
2022/12/13 08:38:04;;;;;;;0.38;0.38;;;;;;;-4.82;100.00;101132.84;4938392;28;20037;-72
2022/12/13 08:40:30;;;;;;;0.40;0.40;;;;;;;-4.69;100.00;101146.69;4924568;29;20074;-72
2022/12/13 08:42:55;;;;;;;0.30;0.30;;;;;;;-4.46;100.00;101157.84;4927658;28;20039;-72
2022/12/13 08:45:22;;;;;;;0.30;0.30;;;;;;;-4.52;100.00;101157.03;4910763;28;20039;-72
2022/12/13 08:47:48;;;;;;;0.30;0.30;;;;;;;-4.61;100.00;101148.38;4925694;28;20118;-72
2022/12/13 08:50:13;;;;;;;0.30;0.30;;;;;;;-4.45;100.00;101138.63;4926894;29;20035;-71
2022/12/13 08:52:39;;;;;;;0.40;0.40;;;;;;;-4.45;100.00;101144.72;4918200;29;20078;-72
2022/12/13 08:55:04;;;;;;;0.30;0.30;;;;;;;-4.14;100.00;101170.59;4910749;29;20038;-72
2022/12/13 08:57:29;;;;;;;0.30;0.30;;;;;;;-4.27;100.00;101163.78;4922754;28;20383;-72
2022/12/13 08:59:55;;;;;;;0.20;0.20;;;;;;;-4.41;100.00;101145.56;4928814;29;20035;-72
2022/12/13 09:02:20;;;;;;;0.32;0.32;;;;;;;-4.26;100.00;101170.75;4917412;28;20035;-72
2022/12/13 09:04:46;;;;;;;0.40;0.40;;;;;;;-4.03;100.00;101161.75;4926951;28;20540;-72
2022/12/13 09:07:12;;;;;;;0.30;0.30;;;;;;;-4.13;100.00;101130.38;4927526;29;20039;-72
2022/12/13 09:09:37;;;;;;;0.30;0.30;;;;;;;-4.16;100.00;101134.81;4926862;28;20090;-72
2022/12/13 09:12:03;;;;;;;0.30;0.30;;;;;;;-3.94;100.00;101159.00;4927862;29;20039;-72
2022/12/13 09:14:29;;;;;;;0.30;0.30;;;;;;;-4.25;100.00;101136.63;4912036;29;20407;-72
2022/12/13 09:16:54;;;;;;;0.30;0.30;;;;;;;-3.99;100.00;101159.06;4926964;29;20252;-72
2022/12/13 09:19:20;;;;;;;0.30;0.30;;;;;;;-4.09;100.00;101170.53;4926039;28;20045;-72
2022/12/13 09:21:45;;;;;;;0.40;0.40;;;;;;;-4.35;100.00;101147.25;4923751;28;20034;-72
2022/12/13 09:24:10;;;;;;;0.30;0.30;;;;;;;-4.28;100.00;101162.88;4940349;28;20035;-72
2022/12/13 09:26:36;;;;;;;0.30;0.30;;;;;;;-4.14;100.00;101162.72;4931892;28;20043;-72
2022/12/13 09:29:01;;;;;;;0.30;0.30;;;;;;;-4.18;100.00;101155.78;4917805;29;20067;-72
2022/12/13 09:31:26;;;;;;;0.30;0.30;;;;;;;-4.15;100.00;101154.91;4937891;28;20039;-72
2022/12/13 09:33:52;;;;;;;0.30;0.30;;;;;;;-4.12;100.00;101162.72;4908921;29;20069;-72
2022/12/13 09:36:19;;;;;;;0.30;0.30;;;;;;;-3.94;100.00;101186.13;4937330;28;20110;-72
2022/12/13 09:38:44;;;;;;;0.40;0.40;;;;;;;-4.01;100.00;101144.25;4921957;29;20158;-72
2022/12/13 09:41:25;;;;;;;0.30;0.30;;;;;;;-3.78;100.00;101144.81;4907034;28;20039;-72
2022/12/13 09:44:03;;;;;;;0.30;0.30;;;;;;;-3.39;100.00;101156.50;4914037;28;20027;-72
2022/12/13 09:46:32;;;;;;;0.30;0.30;;;;;;;-3.37;100.00;101171.38;4924224;28;20046;-72
2022/12/13 09:48:58;;;;;;;0.32;0.32;;;;;;;-3.41;100.00;101148.66;4917205;29;20047;-72
2022/12/13 09:51:24;;;;;;;0.22;0.22;;;;;;;-3.44;100.00;101132.09;4927782;28;20035;-72
2022/12/13 09:53:50;;;;;;;0.40;0.40;;;;;;;-3.09;100.00;101168.34;4937956;28;20030;-72
2022/12/13 09:56:17;;;;;;;0.30;0.30;;;;;;;-2.88;100.00;101147.84;4911381;29;20031;-72
2022/12/13 09:58:47;;;;;;;0.30;0.30;;;;;;;-2.88;100.00;101137.34;4934435;28;20039;-72
2022/12/13 10:01:12;;;;;;;0.30;0.30;;;;;;;-2.77;100.00;101137.16;4922851;29;20035;-72
2022/12/13 10:03:40;;;;;;;0.30;0.30;;;;;;;-2.48;100.00;101154.16;4936350;28;20061;-72
2022/12/13 10:06:15;;;;;;;0.30;0.30;;;;;;;-2.24;100.00;101139.66;4920732;29;20598;-72
2022/12/13 10:08:43;;;;;;;0.32;0.32;;;;;;;-1.90;100.00;101141.59;4938148;28;20039;-72
2022/12/13 10:11:17;;;;;;;0.30;0.30;;;;;;;-1.64;100.00;101129.66;4909568;29;20398;-72
2022/12/13 10:13:46;;;;;;;0.40;0.40;;;;;;;-1.53;100.00;101129.41;4932887;28;20027;-71
2022/12/13 10:16:25;;;;;;;0.30;0.30;;;;;;;-1.14;100.00;101136.41;4935565;28;20038;-72
2022/12/13 10:18:50;;;;;;;0.30;0.30;;;;;;;-1.23;100.00;101126.94;4938255;28;20277;-72
2022/12/13 10:21:35;;;;;;;0.20;0.20;;;;;;;-1.23;100.00;101137.50;4926550;28;20035;-72
2022/12/13 10:24:29;;;;;;;;;;;;;;;-1.53;100.00;101132.03;4932658;28;20043;-72
2022/12/13 10:27:12;;;;;;;;;;;;;;;-0.94;100.00;101131.53;4935000;28;19926;-71
2022/12/13 10:29:59;;;;;;;0.30;0.30;;;;;;;-0.63;100.00;101116.69;4906837;28;19953;-72
2022/12/13 10:32:25;;;;;;;0.28;0.28;;;;;;;-0.81;100.00;101095.16;4934659;28;20077;-71
2022/12/13 10:34:50;;;;;;;0.30;0.30;;;;;;;-0.67;100.00;101101.84;4928265;29;20035;-72
2022/12/13 10:37:21;;;;;;;0.30;0.30;;;;;;;-0.73;99.36;101115.19;4941767;28;20176;-72
2022/12/13 10:39:47;;;;;;;0.30;0.30;;;;;;;-0.37;100.00;101102.75;4936155;28;20110;-72
2022/12/13 10:42:15;;;;;;;0.30;0.30;;;;;;;0.32;96.21;101100.78;4907080;29;20386;-72
2022/12/13 10:44:41;;;;;;;0.30;0.30;;;;;;;1.12;92.40;101095.56;4936839;28;20027;-71
2022/12/13 10:47:09;;;;;;;0.30;0.30;;;;;;;1.71;90.63;101088.19;4906995;29;20042;-72
2022/12/13 10:49:45;;;;;;;0.30;0.30;;;;;;;1.54;85.50;101090.56;4941071;28;20378;-72
2022/12/13 10:52:31;;;;;;;0.30;0.30;;;;;;;1.61;87.19;101085.00;4936330;28;20374;-71
2022/12/13 10:55:01;;;;;;;0.20;0.20;;;;;;;1.59;85.72;101068.31;4940707;28;20033;-72
2022/12/13 10:57:26;;;;;;;0.30;0.30;;;;;;;1.59;86.62;101080.69;4947989;28;20078;-72
2022/12/13 10:59:51;;;;;;;0.30;0.30;;;;;;;1.69;83.73;101052.09;4930265;28;20031;-72
2022/12/13 11:02:32;;;;;;;0.30;0.30;;;;;;;1.82;84.92;101063.09;4943035;28;20054;-72
2022/12/13 11:04:59;;;;;;;0.20;0.20;;;;;;;1.63;84.76;101071.72;4927153;29;20027;-72
2022/12/13 11:07:28;;;;;;;0.20;0.20;;;;;;;1.29;87.91;101079.09;4930821;28;20019;-73
2022/12/13 11:09:53;;;;;;;0.20;0.20;;;;;;;0.88;89.13;101069.03;4935954;28;20028;-72
2022/12/13 11:12:21;;;;;;;0.30;0.30;;;;;;;0.95;90.85;101068.81;4918810;29;20035;-72
2022/12/13 11:14:54;;;;;;;0.20;0.20;;;;;;;0.77;88.52;101065.88;4948259;28;20042;-72
2022/12/13 11:17:25;;;;;;;0.30;0.30;;;;;;;0.87;91.60;101066.44;4926516;28;20023;-71
2022/12/13 11:19:53;;;;;;;0.30;0.30;;;;;;;1.58;86.62;101066.63;4913554;29;20027;-72
2022/12/13 11:22:36;;;;;;;0.20;0.20;;;;;;;2.33;83.86;101067.28;4934839;28;20039;-72
2022/12/13 11:25:48;;;;;;;0.30;0.30;;;;;;;3.31;76.26;101065.91;4924872;29;20031;-71
2022/12/13 11:28:31;;;;;;;0.20;0.20;;;;;;;4.44;69.82;101060.75;4930921;28;20051;-71